AAL5421 KJFK-KPWM
Flight info
| Callsign | AAL5421 |
|---|---|
| Flight time | N/A |
| Altitude | 35000 |
| Route | GREKI JUDDS CAM CDOGG4 |
| Aircraft | A20N/M-SDE2E3FGHIRWXY/LB1 |
Departure
| Time | 2026-05-06 20:43 |
|---|---|
| Airport | John F. Kennedy International Airport (KJFK) |
Arrival
| Time | N/A |
|---|---|
| Airport | Portland International Jetport (KPWM) |
| Time | Latitude | Longitude | Altitude | Speed | Heading |
|---|---|---|---|---|---|
| 2026-05-06 20:21 | 40.64530 | -73.77188 | 20 ft | 0 kts | 1° |
| 2026-05-06 20:30 | 40.64521 | -73.77188 | 22 ft | 2 kts | 11° |
| 2026-05-06 20:31 | 40.64509 | -73.77193 | 23 ft | 2 kts | 33° |
| 2026-05-06 20:31 | 40.64498 | -73.77205 | 20 ft | 2 kts | 56° |
| 2026-05-06 20:31 | 40.64492 | -73.77220 | 22 ft | 2 kts | 78° |
| 2026-05-06 20:31 | 40.64491 | -73.77238 | 22 ft | 2 kts | 100° |
| 2026-05-06 20:32 | 40.64491 | -73.77242 | 23 ft | 0 kts | 105° |
| 2026-05-06 20:32 | 40.64491 | -73.77241 | 23 ft | 0 kts | 105° |
| 2026-05-06 20:35 | 40.64491 | -73.77239 | 22 ft | 0 kts | 101° |
| 2026-05-06 20:35 | 40.64490 | -73.77229 | 22 ft | 3 kts | 99° |
| 2026-05-06 20:36 | 40.64457 | -73.77191 | 20 ft | 12 kts | 130° |
| 2026-05-06 20:36 | 40.64426 | -73.77062 | 20 ft | 19 kts | 102° |
| 2026-05-06 20:36 | 40.64471 | -73.76968 | 20 ft | 10 kts | 357° |
| 2026-05-06 20:36 | 40.64571 | -73.76942 | 20 ft | 19 kts | 25° |
| 2026-05-06 20:37 | 40.64693 | -73.76852 | 20 ft | 1 kts | 29° |
| 2026-05-06 20:37 | 40.64694 | -73.76852 | 20 ft | 0 kts | 29° |
| 2026-05-06 20:37 | 40.64707 | -73.76841 | 20 ft | 7 kts | 35° |
| 2026-05-06 20:37 | 40.64798 | -73.76761 | 22 ft | 25 kts | 32° |
| 2026-05-06 20:38 | 40.64978 | -73.76619 | 21 ft | 32 kts | 30° |
| 2026-05-06 20:38 | 40.65097 | -73.76495 | 22 ft | 8 kts | 92° |
| 2026-05-06 20:38 | 40.65088 | -73.76448 | 22 ft | 0 kts | 110° |
| 2026-05-06 20:40 | 40.65087 | -73.76446 | 22 ft | 1 kts | 113° |
| 2026-05-06 20:40 | 40.65081 | -73.76431 | 26 ft | 3 kts | 119° |
| 2026-05-06 20:40 | 40.65067 | -73.76398 | 24 ft | 6 kts | 120° |
| 2026-05-06 20:41 | 40.65031 | -73.76361 | 27 ft | 8 kts | 155° |
| 2026-05-06 20:41 | 40.64996 | -73.76370 | 22 ft | 5 kts | 217° |
| 2026-05-06 20:41 | 40.64994 | -73.76372 | 22 ft | 0 kts | 217° |
| 2026-05-06 20:42 | 40.64992 | -73.76373 | 22 ft | 1 kts | 217° |
| 2026-05-06 20:42 | 40.64841 | -73.76494 | 21 ft | 60 kts | 208° |
| 2026-05-06 20:42 | 40.64300 | -73.76920 | 21 ft | 118 kts | 210° |
| 2026-05-06 20:43 | 40.63474 | -73.77542 | 204 ft | 142 kts | 208° |
| 2026-05-06 20:43 | 40.62660 | -73.78202 | 804 ft | 135 kts | 218° |
| 2026-05-06 20:43 | 40.61911 | -73.78948 | 1382 ft | 137 kts | 217° |
| 2026-05-06 20:43 | 40.61083 | -73.79670 | 2016 ft | 155 kts | 216° |
| 2026-05-06 20:44 | 40.60139 | -73.80466 | 2764 ft | 167 kts | 217° |
| 2026-05-06 20:44 | 40.59035 | -73.81395 | 3087 ft | 208 kts | 216° |
| 2026-05-06 20:44 | 40.57788 | -73.82520 | 3826 ft | 224 kts | 225° |
| 2026-05-06 20:44 | 40.56910 | -73.84230 | 4232 ft | 233 kts | 252° |
| 2026-05-06 20:45 | 40.56786 | -73.86449 | 4354 ft | 252 kts | 278° |
| 2026-05-06 20:45 | 40.57435 | -73.88591 | 4474 ft | 260 kts | 299° |
| 2026-05-06 20:45 | 40.58814 | -73.90323 | 4611 ft | 288 kts | 324° |
| 2026-05-06 20:45 | 40.60725 | -73.91156 | 4734 ft | 307 kts | 348° |
| 2026-05-06 20:46 | 40.62927 | -73.90878 | 4864 ft | 327 kts | 12° |
| 2026-05-06 20:46 | 40.64949 | -73.89449 | 4998 ft | 336 kts | 37° |
| 2026-05-06 20:46 | 40.66621 | -73.87260 | 5138 ft | 342 kts | 44° |
| 2026-05-06 20:46 | 40.68340 | -73.85101 | 5512 ft | 346 kts | 38° |
| 2026-05-06 20:47 | 40.70272 | -73.83138 | 6003 ft | 358 kts | 30° |
| 2026-05-06 20:47 | 40.72427 | -73.81423 | 6462 ft | 363 kts | 25° |
| 2026-05-06 20:47 | 40.74689 | -73.79868 | 6929 ft | 368 kts | 22° |
| 2026-05-06 20:47 | 40.76990 | -73.78368 | 7381 ft | 370 kts | 21° |
| 2026-05-06 20:48 | 40.79328 | -73.76861 | 7850 ft | 382 kts | 21° |
| 2026-05-06 20:48 | 40.81738 | -73.75305 | 8325 ft | 400 kts | 21° |
| 2026-05-06 20:48 | 40.84261 | -73.73664 | 8828 ft | 402 kts | 22° |
| 2026-05-06 20:48 | 40.85631 | -73.72766 | 9100 ft | 402 kts | 22° |
| 2026-05-06 20:49 | 40.88162 | -73.71109 | 9591 ft | 408 kts | 22° |
| 2026-05-06 20:49 | 40.90720 | -73.69429 | 10058 ft | 411 kts | 22° |
| 2026-05-06 20:49 | 40.93293 | -73.67734 | 10500 ft | 415 kts | 22° |
| 2026-05-06 20:49 | 40.95887 | -73.66026 | 10957 ft | 417 kts | 22° |
| 2026-05-06 20:50 | 40.98457 | -73.64334 | 11403 ft | 420 kts | 22° |
| 2026-05-06 20:50 | 41.01083 | -73.62603 | 11874 ft | 423 kts | 21° |
| 2026-05-06 20:50 | 41.03727 | -73.60860 | 12367 ft | 426 kts | 22° |
| 2026-05-06 20:50 | 41.06388 | -73.59103 | 12854 ft | 430 kts | 22° |
| 2026-05-06 20:51 | 41.09072 | -73.57330 | 13348 ft | 433 kts | 22° |
| 2026-05-06 20:51 | 41.11775 | -73.55542 | 13821 ft | 436 kts | 22° |
| 2026-05-06 20:51 | 41.14500 | -73.53739 | 14261 ft | 439 kts | 22° |
| 2026-05-06 20:51 | 41.17243 | -73.51921 | 14718 ft | 442 kts | 22° |
| 2026-05-06 20:52 | 41.20002 | -73.50089 | 15183 ft | 445 kts | 22° |
| 2026-05-06 20:52 | 41.22747 | -73.48267 | 15662 ft | 448 kts | 22° |
| 2026-05-06 20:52 | 41.25541 | -73.46411 | 16126 ft | 451 kts | 22° |
| 2026-05-06 20:52 | 41.28356 | -73.44538 | 16694 ft | 454 kts | 22° |
| 2026-05-06 20:53 | 41.31197 | -73.42648 | 17361 ft | 459 kts | 22° |
| 2026-05-06 20:53 | 41.34065 | -73.40738 | 18047 ft | 463 kts | 22° |
| 2026-05-06 20:53 | 41.36959 | -73.38808 | 18652 ft | 467 kts | 22° |
| 2026-05-06 20:53 | 41.39869 | -73.36862 | 19294 ft | 469 kts | 22° |
| 2026-05-06 20:54 | 41.41808 | -73.35566 | 19707 ft | 471 kts | 21° |
| 2026-05-06 20:54 | 41.44741 | -73.33593 | 20341 ft | 474 kts | 23° |
| 2026-05-06 20:54 | 41.47571 | -73.31273 | 20981 ft | 481 kts | 31° |
| 2026-05-06 20:54 | 41.50197 | -73.28455 | 21642 ft | 488 kts | 38° |
| 2026-05-06 20:55 | 41.52621 | -73.25259 | 22314 ft | 491 kts | 41° |
| 2026-05-06 20:55 | 41.55037 | -73.22036 | 23013 ft | 490 kts | 40° |
| 2026-05-06 20:55 | 41.57450 | -73.18829 | 23735 ft | 488 kts | 40° |
| 2026-05-06 20:55 | 41.59947 | -73.15809 | 24388 ft | 480 kts | 30° |
| 2026-05-06 20:56 | 41.62719 | -73.13576 | 25038 ft | 465 kts | 17° |
| 2026-05-06 20:56 | 41.65713 | -73.12207 | 25728 ft | 446 kts | 2° |
| 2026-05-06 20:56 | 41.69715 | -73.11814 | 26684 ft | 419 kts | 345° |
| 2026-05-06 20:56 | 41.71602 | -73.12110 | 27170 ft | 410 kts | 341° |
| 2026-05-06 20:57 | 41.74410 | -73.12629 | 27909 ft | 405 kts | 341° |
| 2026-05-06 20:57 | 41.77187 | -73.13120 | 28705 ft | 399 kts | 340° |
| 2026-05-06 20:57 | 41.79921 | -73.13585 | 29486 ft | 393 kts | 340° |
| 2026-05-06 20:57 | 41.82608 | -73.14037 | 30235 ft | 385 kts | 339° |
| 2026-05-06 20:58 | 41.85239 | -73.14482 | 30925 ft | 377 kts | 339° |
| 2026-05-06 20:58 | 41.87818 | -73.14920 | 31622 ft | 369 kts | 338° |
| 2026-05-06 20:58 | 41.90328 | -73.15347 | 32344 ft | 359 kts | 338° |
| 2026-05-06 20:58 | 41.92732 | -73.15754 | 33089 ft | 347 kts | 337° |
| 2026-05-06 20:59 | 41.95089 | -73.16153 | 33735 ft | 338 kts | 336° |
| 2026-05-06 20:59 | 41.97418 | -73.16566 | 33957 ft | 340 kts | 336° |
| 2026-05-06 20:59 | 41.99776 | -73.16993 | 34134 ft | 344 kts | 336° |
| 2026-05-06 20:59 | 42.02159 | -73.17416 | 34341 ft | 346 kts | 336° |
| 2026-05-06 21:00 | 42.04549 | -73.17830 | 34571 ft | 347 kts | 336° |
| 2026-05-06 21:00 | 42.06951 | -73.18244 | 34729 ft | 351 kts | 336° |
| 2026-05-06 21:00 | 42.09394 | -73.18672 | 34793 ft | 358 kts | 336° |
| 2026-05-06 21:01 | 42.14415 | -73.19555 | 34781 ft | 376 kts | 337° |
| 2026-05-06 21:01 | 42.19730 | -73.20478 | 34783 ft | 394 kts | 338° |
| 2026-05-06 21:02 | 42.25286 | -73.21436 | 34770 ft | 410 kts | 339° |
| 2026-05-06 21:02 | 42.31074 | -73.22438 | 34767 ft | 428 kts | 339° |
| 2026-05-06 21:03 | 42.37065 | -73.23478 | 34774 ft | 446 kts | 340° |
| 2026-05-06 21:03 | 42.43283 | -73.24548 | 34768 ft | 453 kts | 340° |
| 2026-05-06 21:04 | 42.49522 | -73.25621 | 34768 ft | 451 kts | 340° |
| 2026-05-06 21:04 | 42.55761 | -73.26710 | 34766 ft | 454 kts | 340° |
| 2026-05-06 21:05 | 42.61905 | -73.27773 | 34757 ft | 444 kts | 340° |
| 2026-05-06 21:05 | 42.68039 | -73.28853 | 34766 ft | 446 kts | 340° |
| 2026-05-06 21:06 | 42.74196 | -73.29932 | 34750 ft | 445 kts | 340° |
| 2026-05-06 21:06 | 42.80324 | -73.31012 | 34798 ft | 445 kts | 340° |
| 2026-05-06 21:07 | 42.86519 | -73.32015 | 34761 ft | 457 kts | 346° |
| 2026-05-06 21:07 | 42.89703 | -73.31777 | 34747 ft | 474 kts | 357° |
| 2026-05-06 21:07 | 42.92966 | -73.30663 | 34749 ft | 494 kts | 9° |
| 2026-05-06 21:07 | 42.96127 | -73.28641 | 34743 ft | 510 kts | 22° |
| 2026-05-06 21:08 | 42.99043 | -73.25766 | 34791 ft | 525 kts | 34° |
| 2026-05-06 21:08 | 43.01587 | -73.22141 | 34754 ft | 533 kts | 47° |
| 2026-05-06 21:08 | 43.03632 | -73.17886 | 34761 ft | 540 kts | 59° |
| 2026-05-06 21:08 | 43.05110 | -73.13130 | 34756 ft | 547 kts | 71° |
| 2026-05-06 21:09 | 43.06050 | -73.08090 | 34758 ft | 547 kts | 77° |
| 2026-05-06 21:09 | 43.07718 | -72.98018 | 34762 ft | 546 kts | 75° |
| 2026-05-06 21:10 | 43.09743 | -72.88011 | 34713 ft | 546 kts | 72° |
| 2026-05-06 21:10 | 43.10823 | -72.83026 | 34447 ft | 546 kts | 72° |
| 2026-05-06 21:10 | 43.11913 | -72.78055 | 34060 ft | 544 kts | 72° |
| 2026-05-06 21:10 | 43.12993 | -72.73133 | 33614 ft | 538 kts | 72° |
| 2026-05-06 21:11 | 43.14061 | -72.68251 | 33103 ft | 532 kts | 72° |
| 2026-05-06 21:11 | 43.15112 | -72.63424 | 32596 ft | 526 kts | 72° |
| 2026-05-06 21:11 | 43.16149 | -72.58649 | 32058 ft | 520 kts | 72° |
| 2026-05-06 21:11 | 43.17155 | -72.54004 | 31585 ft | 514 kts | 73° |
| 2026-05-06 21:12 | 43.18164 | -72.49333 | 31109 ft | 508 kts | 73° |
| 2026-05-06 21:12 | 43.19159 | -72.44719 | 30640 ft | 502 kts | 73° |
| 2026-05-06 21:12 | 43.20141 | -72.40155 | 30182 ft | 497 kts | 73° |
| 2026-05-06 21:12 | 43.21113 | -72.35627 | 29710 ft | 492 kts | 73° |
| 2026-05-06 21:13 | 43.22071 | -72.31153 | 29181 ft | 487 kts | 73° |
| 2026-05-06 21:13 | 43.23019 | -72.26724 | 28703 ft | 482 kts | 74° |
| 2026-05-06 21:13 | 43.23955 | -72.22347 | 28146 ft | 476 kts | 75° |
| 2026-05-06 21:13 | 43.24868 | -72.18069 | 27648 ft | 471 kts | 75° |
| 2026-05-06 21:14 | 43.25780 | -72.13782 | 27155 ft | 466 kts | 75° |
| 2026-05-06 21:14 | 43.26681 | -72.09532 | 26678 ft | 461 kts | 75° |
| 2026-05-06 21:14 | 43.27572 | -72.05323 | 26198 ft | 457 kts | 75° |
| 2026-05-06 21:14 | 43.28457 | -72.01127 | 25705 ft | 462 kts | 76° |
| 2026-05-06 21:15 | 43.29357 | -71.96850 | 25224 ft | 468 kts | 76° |
| 2026-05-06 21:15 | 43.30258 | -71.92570 | 24744 ft | 465 kts | 76° |
| 2026-05-06 21:15 | 43.31150 | -71.88331 | 24252 ft | 460 kts | 77° |
| 2026-05-06 21:15 | 43.32030 | -71.84140 | 23797 ft | 455 kts | 77° |
| 2026-05-06 21:16 | 43.32890 | -71.80027 | 23344 ft | 453 kts | 77° |
| 2026-05-06 21:16 | 43.33753 | -71.75885 | 22755 ft | 449 kts | 77° |
| 2026-05-06 21:16 | 43.34609 | -71.71768 | 22175 ft | 447 kts | 77° |
| 2026-05-06 21:16 | 43.35457 | -71.67672 | 21602 ft | 445 kts | 77° |
| 2026-05-06 21:17 | 43.36300 | -71.63598 | 21035 ft | 442 kts | 77° |
| 2026-05-06 21:17 | 43.37138 | -71.59548 | 20495 ft | 439 kts | 76° |
| 2026-05-06 21:17 | 43.37968 | -71.55520 | 19942 ft | 437 kts | 76° |
| 2026-05-06 21:17 | 43.38780 | -71.51572 | 19412 ft | 433 kts | 76° |
| 2026-05-06 21:18 | 43.39594 | -71.47602 | 18879 ft | 430 kts | 76° |
| 2026-05-06 21:18 | 43.40402 | -71.43655 | 18351 ft | 428 kts | 76° |
| 2026-05-06 21:18 | 43.41206 | -71.39721 | 17786 ft | 426 kts | 75° |
| 2026-05-06 21:18 | 43.42005 | -71.35808 | 17173 ft | 424 kts | 75° |
| 2026-05-06 21:19 | 43.42798 | -71.31922 | 16595 ft | 421 kts | 75° |
| 2026-05-06 21:19 | 43.43585 | -71.28051 | 16013 ft | 419 kts | 75° |
| 2026-05-06 21:19 | 43.44358 | -71.24247 | 15773 ft | 407 kts | 75° |
| 2026-05-06 21:19 | 43.45114 | -71.20523 | 15297 ft | 403 kts | 75° |
| 2026-05-06 21:20 | 43.45855 | -71.16871 | 14744 ft | 402 kts | 75° |
| 2026-05-06 21:20 | 43.46640 | -71.13191 | 14198 ft | 400 kts | 71° |
| 2026-05-06 21:20 | 43.47594 | -71.09600 | 13658 ft | 398 kts | 70° |
| 2026-05-06 21:20 | 43.48564 | -71.06038 | 13055 ft | 396 kts | 69° |
| 2026-05-06 21:21 | 43.49528 | -71.02499 | 12471 ft | 394 kts | 70° |
| 2026-05-06 21:21 | 43.50481 | -70.98980 | 11887 ft | 391 kts | 70° |
| 2026-05-06 21:21 | 43.51422 | -70.95481 | 11393 ft | 387 kts | 70° |
| 2026-05-06 21:21 | 43.52339 | -70.92076 | 11277 ft | 371 kts | 70° |
| 2026-05-06 21:22 | 43.53207 | -70.88841 | 11172 ft | 362 kts | 70° |
| 2026-05-06 21:22 | 43.54111 | -70.85658 | 11075 ft | 351 kts | 64° |
| 2026-05-06 21:22 | 43.55238 | -70.82751 | 10994 ft | 336 kts | 61° |
| 2026-05-06 21:22 | 43.56338 | -70.79965 | 10996 ft | 330 kts | 61° |
| 2026-05-06 21:23 | 43.57442 | -70.77159 | 10990 ft | 334 kts | 61° |
| 2026-05-06 21:23 | 43.58544 | -70.74349 | 10988 ft | 332 kts | 61° |
| 2026-05-06 21:23 | 43.59631 | -70.71550 | 10982 ft | 332 kts | 62° |
| 2026-05-06 21:23 | 43.60737 | -70.68693 | 10987 ft | 340 kts | 61° |
| 2026-05-06 21:24 | 43.61864 | -70.65849 | 10989 ft | 337 kts | 61° |
| 2026-05-06 21:24 | 43.62978 | -70.63012 | 10984 ft | 335 kts | 61° |
| 2026-05-06 21:24 | 43.63937 | -70.60203 | 10978 ft | 321 kts | 66° |
| 2026-05-06 21:24 | 43.64826 | -70.57430 | 10777 ft | 314 kts | 67° |
| 2026-05-06 21:25 | 43.65655 | -70.54634 | 10270 ft | 318 kts | 76° |
| 2026-05-06 21:25 | 43.65876 | -70.51605 | 9677 ft | 319 kts | 98° |
| 2026-05-06 21:25 | 43.65662 | -70.48516 | 8949 ft | 328 kts | 99° |
| 2026-05-06 21:25 | 43.65436 | -70.45340 | 8220 ft | 337 kts | 99° |
| 2026-05-06 21:26 | 43.65211 | -70.42085 | 7533 ft | 344 kts | 99° |
| 2026-05-06 21:26 | 43.64988 | -70.38768 | 6844 ft | 350 kts | 99° |
| 2026-05-06 21:26 | 43.64761 | -70.35406 | 6170 ft | 354 kts | 99° |
| 2026-05-06 21:26 | 43.64541 | -70.32066 | 5641 ft | 353 kts | 99° |
| 2026-05-06 21:27 | 43.64040 | -70.28821 | 5148 ft | 340 kts | 116° |
| 2026-05-06 21:27 | 43.63160 | -70.25835 | 4669 ft | 333 kts | 122° |
| 2026-05-06 21:27 | 43.62215 | -70.22948 | 4196 ft | 329 kts | 119° |
| 2026-05-06 21:27 | 43.61788 | -70.19840 | 3884 ft | 329 kts | 97° |
| 2026-05-06 21:28 | 43.61806 | -70.16775 | 3774 ft | 308 kts | 95° |
| 2026-05-06 21:28 | 43.61842 | -70.13922 | 3818 ft | 285 kts | 96° |
| 2026-05-06 21:28 | 43.61930 | -70.11276 | 3782 ft | 273 kts | 86° |
| 2026-05-06 21:28 | 43.62658 | -70.08831 | 3488 ft | 282 kts | 56° |
| 2026-05-06 21:29 | 43.64021 | -70.06963 | 3271 ft | 275 kts | 40° |
| 2026-05-06 21:29 | 43.65459 | -70.05224 | 3171 ft | 279 kts | 40° |
| 2026-05-06 21:29 | 43.67027 | -70.03684 | 3062 ft | 273 kts | 21° |
| 2026-05-06 21:29 | 43.68792 | -70.03182 | 3029 ft | 245 kts | 349° |
| 2026-05-06 21:30 | 43.70393 | -70.03532 | 3017 ft | 224 kts | 338° |
| 2026-05-06 21:30 | 43.71745 | -70.04394 | 3039 ft | 208 kts | 304° |
| 2026-05-06 21:30 | 43.72438 | -70.05983 | 3042 ft | 187 kts | 276° |
| 2026-05-06 21:30 | 43.72783 | -70.07699 | 3005 ft | 184 kts | 274° |
| 2026-05-06 21:31 | 43.73116 | -70.09413 | 3003 ft | 185 kts | 275° |
| 2026-05-06 21:31 | 43.73232 | -70.11090 | 3016 ft | 174 kts | 256° |
| 2026-05-06 21:31 | 43.73066 | -70.12740 | 3000 ft | 175 kts | 255° |
| 2026-05-06 21:31 | 43.72877 | -70.14375 | 3001 ft | 168 kts | 252° |
| 2026-05-06 21:32 | 43.72674 | -70.15965 | 3008 ft | 168 kts | 252° |
| 2026-05-06 21:32 | 43.72716 | -70.19283 | 2998 ft | 179 kts | 272° |
| 2026-05-06 21:32 | 43.72996 | -70.20959 | 3013 ft | 180 kts | 272° |
| 2026-05-06 21:33 | 43.73293 | -70.22655 | 3003 ft | 182 kts | 272° |
| 2026-05-06 21:33 | 43.73590 | -70.24333 | 3021 ft | 181 kts | 273° |
| 2026-05-06 21:33 | 43.73865 | -70.26028 | 3004 ft | 180 kts | 272° |
| 2026-05-06 21:33 | 43.74135 | -70.27721 | 3003 ft | 180 kts | 272° |
| 2026-05-06 21:34 | 43.74405 | -70.29414 | 3005 ft | 180 kts | 270° |
| 2026-05-06 21:34 | 43.74517 | -70.31100 | 3005 ft | 173 kts | 258° |
| 2026-05-06 21:34 | 43.74166 | -70.32598 | 3002 ft | 161 kts | 227° |
| 2026-05-06 21:34 | 43.73425 | -70.33711 | 2991 ft | 157 kts | 225° |
| 2026-05-06 21:35 | 43.72666 | -70.34796 | 2991 ft | 156 kts | 224° |
| 2026-05-06 21:35 | 43.71890 | -70.35862 | 2993 ft | 160 kts | 224° |
| 2026-05-06 21:35 | 43.71097 | -70.36932 | 2985 ft | 161 kts | 223° |
| 2026-05-06 21:35 | 43.70281 | -70.38015 | 2986 ft | 163 kts | 223° |
| 2026-05-06 21:36 | 43.69479 | -70.39085 | 2984 ft | 158 kts | 222° |
| 2026-05-06 21:36 | 43.68685 | -70.40141 | 2985 ft | 161 kts | 223° |
| 2026-05-06 21:36 | 43.67883 | -70.41206 | 2994 ft | 158 kts | 223° |
| 2026-05-06 21:36 | 43.67066 | -70.41990 | 2992 ft | 166 kts | 200° |
| 2026-05-06 21:37 | 43.65896 | -70.41884 | 2978 ft | 181 kts | 163° |
| 2026-05-06 21:37 | 43.64945 | -70.40639 | 2785 ft | 202 kts | 127° |
| 2026-05-06 21:37 | 43.64554 | -70.38691 | 2372 ft | 221 kts | 104° |
| 2026-05-06 21:37 | 43.64503 | -70.36489 | 1804 ft | 238 kts | 97° |
| 2026-05-06 21:38 | 43.64509 | -70.34227 | 1448 ft | 236 kts | 96° |
| 2026-05-06 21:38 | 43.64468 | -70.31989 | 1173 ft | 228 kts | 99° |
| 2026-05-06 21:38 | 43.64112 | -70.29967 | 1047 ft | 207 kts | 124° |
| 2026-05-06 21:38 | 43.63232 | -70.28562 | 970 ft | 185 kts | 146° |
| 2026-05-06 21:39 | 43.62307 | -70.27466 | 1048 ft | 164 kts | 151° |
| 2026-05-06 21:39 | 43.61316 | -70.27055 | 1212 ft | 149 kts | 191° |
| 2026-05-06 21:39 | 43.60349 | -70.27317 | 1475 ft | 136 kts | 200° |
| 2026-05-06 21:39 | 43.59651 | -70.28201 | 1752 ft | 149 kts | 242° |
| 2026-05-06 21:40 | 43.59616 | -70.29644 | 1935 ft | 159 kts | 268° |
| 2026-05-06 21:40 | 43.59866 | -70.31156 | 1998 ft | 165 kts | 277° |
| 2026-05-06 21:40 | 43.60387 | -70.32611 | 2016 ft | 171 kts | 288° |
| 2026-05-06 21:40 | 43.61034 | -70.34004 | 2007 ft | 180 kts | 292° |
| 2026-05-06 21:41 | 43.61690 | -70.35497 | 1998 ft | 181 kts | 289° |
| 2026-05-06 21:41 | 43.62349 | -70.36987 | 1993 ft | 186 kts | 298° |
| 2026-05-06 21:41 | 43.63219 | -70.38341 | 1998 ft | 190 kts | 301° |
| 2026-05-06 21:41 | 43.64367 | -70.39310 | 1992 ft | 203 kts | 342° |
| 2026-05-06 21:42 | 43.65806 | -70.39105 | 1977 ft | 212 kts | 23° |
| 2026-05-06 21:42 | 43.66901 | -70.37860 | 2002 ft | 199 kts | 65° |
| 2026-05-06 21:42 | 43.67180 | -70.36076 | 2008 ft | 195 kts | 107° |
| 2026-05-06 21:42 | 43.67026 | -70.34243 | 1989 ft | 198 kts | 92° |
| 2026-05-06 21:43 | 43.67367 | -70.32365 | 1990 ft | 208 kts | 69° |
| 2026-05-06 21:43 | 43.68384 | -70.30928 | 2007 ft | 218 kts | 28° |
| 2026-05-06 21:43 | 43.69817 | -70.30523 | 2002 ft | 207 kts | 345° |
| 2026-05-06 21:43 | 43.71039 | -70.31277 | 2009 ft | 182 kts | 305° |
| 2026-05-06 21:44 | 43.71655 | -70.32706 | 2001 ft | 171 kts | 277° |
| 2026-05-06 21:44 | 43.71910 | -70.34251 | 1984 ft | 162 kts | 270° |
| 2026-05-06 21:44 | 43.72115 | -70.35772 | 1973 ft | 155 kts | 270° |
| 2026-05-06 21:44 | 43.72307 | -70.37157 | 1991 ft | 147 kts | 270° |
| 2026-05-06 21:45 | 43.72502 | -70.38591 | 1986 ft | 150 kts | 271° |
| 2026-05-06 21:45 | 43.72678 | -70.39989 | 1993 ft | 149 kts | 270° |
| 2026-05-06 21:45 | 43.72842 | -70.41433 | 1912 ft | 149 kts | 263° |
| 2026-05-06 21:45 | 43.72934 | -70.42873 | 1803 ft | 151 kts | 262° |
| 2026-05-06 21:46 | 43.72989 | -70.44303 | 1717 ft | 149 kts | 261° |
| 2026-05-06 21:46 | 43.72984 | -70.45748 | 1607 ft | 149 kts | 245° |
| 2026-05-06 21:46 | 43.72416 | -70.46762 | 1494 ft | 132 kts | 199° |
| 2026-05-06 21:46 | 43.71455 | -70.46977 | 1489 ft | 153 kts | 178° |
| 2026-05-06 21:47 | 43.70474 | -70.46454 | 1492 ft | 149 kts | 155° |
| 2026-05-06 21:47 | 43.69516 | -70.46116 | 1505 ft | 144 kts | 172° |
| 2026-05-06 21:47 | 43.68619 | -70.45346 | 1491 ft | 158 kts | 149° |
| 2026-05-06 21:47 | 43.67728 | -70.44618 | 1490 ft | 149 kts | 148° |
| 2026-05-06 21:48 | 43.67045 | -70.43510 | 1485 ft | 158 kts | 120° |
| 2026-05-06 21:48 | 43.66668 | -70.42072 | 1481 ft | 156 kts | 116° |
| 2026-05-06 21:48 | 43.66322 | -70.40638 | 1486 ft | 159 kts | 117° |
| 2026-05-06 21:48 | 43.65975 | -70.39183 | 1490 ft | 161 kts | 116° |
| 2026-05-06 21:49 | 43.65700 | -70.37686 | 1514 ft | 169 kts | 107° |
| 2026-05-06 21:49 | 43.65443 | -70.36128 | 1492 ft | 165 kts | 117° |
| 2026-05-06 21:49 | 43.64999 | -70.34670 | 938 ft | 167 kts | 118° |
| 2026-05-06 21:49 | 43.64806 | -70.33066 | 689 ft | 164 kts | 100° |
| 2026-05-06 21:50 | 43.64632 | -70.31389 | 1293 ft | 184 kts | 103° |
| 2026-05-06 21:50 | 43.64496 | -70.29487 | 1702 ft | 221 kts | 103° |
| 2026-05-06 21:50 | 43.64387 | -70.27137 | 1717 ft | 267 kts | 102° |
| 2026-05-06 21:50 | 43.64243 | -70.24537 | 1700 ft | 282 kts | 102° |
| 2026-05-06 21:51 | 43.64078 | -70.21820 | 1703 ft | 267 kts | 103° |
| 2026-05-06 21:51 | 43.64210 | -70.19529 | 1914 ft | 223 kts | 76° |
| 2026-05-06 21:51 | 43.65309 | -70.18209 | 2064 ft | 231 kts | 3° |
| 2026-05-06 21:51 | 43.66893 | -70.18742 | 1785 ft | 241 kts | 309° |
| 2026-05-06 21:52 | 43.67755 | -70.20705 | 1100 ft | 250 kts | 270° |
| 2026-05-06 21:52 | 43.67588 | -70.22805 | 950 ft | 194 kts | 252° |
| 2026-05-06 21:52 | 43.67377 | -70.24490 | 821 ft | 174 kts | 254° |
| 2026-05-06 21:52 | 43.67367 | -70.26300 | 1118 ft | 196 kts | 265° |
| 2026-05-06 21:53 | 43.67455 | -70.28201 | 1547 ft | 199 kts | 263° |
| 2026-05-06 21:53 | 43.67609 | -70.29870 | 1847 ft | 155 kts | 268° |
| 2026-05-06 21:53 | 43.67879 | -70.31281 | 1866 ft | 179 kts | 281° |
| 2026-05-06 21:53 | 43.68528 | -70.33051 | 1694 ft | 225 kts | 288° |
| 2026-05-06 21:54 | 43.69254 | -70.34969 | 1680 ft | 212 kts | 288° |
| 2026-05-06 21:54 | 43.69921 | -70.36616 | 1616 ft | 184 kts | 289° |
| 2026-05-06 21:54 | 43.70568 | -70.38102 | 1510 ft | 180 kts | 290° |
| 2026-05-06 21:54 | 43.70950 | -70.39528 | 1669 ft | 160 kts | 259° |
| 2026-05-06 21:55 | 43.70583 | -70.40846 | 1682 ft | 142 kts | 217° |
| 2026-05-06 21:55 | 43.69686 | -70.41353 | 1694 ft | 143 kts | 194° |
| 2026-05-06 21:55 | 43.68709 | -70.41753 | 1694 ft | 149 kts | 200° |
| 2026-05-06 21:55 | 43.67781 | -70.42345 | 1683 ft | 145 kts | 207° |
| 2026-05-06 21:56 | 43.66820 | -70.42798 | 1685 ft | 148 kts | 184° |
| 2026-05-06 21:56 | 43.65839 | -70.42445 | 1686 ft | 155 kts | 155° |
| 2026-05-06 21:56 | 43.65171 | -70.41248 | 1681 ft | 165 kts | 118° |
| 2026-05-06 21:56 | 43.65022 | -70.39663 | 1505 ft | 167 kts | 104° |
| 2026-05-06 21:57 | 43.64933 | -70.38057 | 1446 ft | 165 kts | 102° |
| 2026-05-06 21:57 | 43.64840 | -70.36385 | 1286 ft | 190 kts | 103° |
| 2026-05-06 21:57 | 43.64720 | -70.34584 | 1123 ft | 189 kts | 100° |
| 2026-05-06 21:57 | 43.64618 | -70.32800 | 420 ft | 186 kts | 101° |
| 2026-05-06 21:58 | 43.64563 | -70.31404 | 180 ft | 172 kts | 98° |